createdAt,value
2023-02-07T00:01:26.213Z,26.90
2023-02-07T00:03:56.574Z,19.30
2023-02-07T00:06:27.167Z,15.93
2023-02-07T00:08:55.732Z,17.93
2023-02-07T00:11:24.714Z,23.07
2023-02-07T00:13:57.405Z,30.43
2023-02-07T00:16:27.839Z,15.13
2023-02-07T00:18:58.361Z,17.40
2023-02-07T00:21:30.851Z,24.50
2023-02-07T00:23:59.653Z,19.30
2023-02-07T00:26:28.649Z,18.93
2023-02-07T00:28:57.573Z,20.80
2023-02-07T00:31:28.803Z,18.70
2023-02-07T00:33:59.642Z,17.93
2023-02-07T00:36:29.634Z,20.67
2023-02-07T00:38:58.796Z,18.57
2023-02-07T00:41:27.088Z,20.17
2023-02-07T00:43:55.667Z,18.93
2023-02-07T00:46:26.693Z,23.13
2023-02-07T00:48:55.563Z,17.97
2023-02-07T00:51:25.686Z,19.77
2023-02-07T00:53:54.982Z,18.60
2023-02-07T00:56:24.156Z,19.07
2023-02-07T00:58:52.476Z,21.13
2023-02-07T01:01:21.295Z,20.73
2023-02-07T01:03:51.285Z,23.30
2023-02-07T01:06:19.915Z,20.37
2023-02-07T01:08:48.420Z,18.03
2023-02-07T01:11:19.018Z,18.13
2023-02-07T01:13:47.528Z,22.77
2023-02-07T01:16:20.493Z,21.47
2023-02-07T01:18:50.572Z,20.13
2023-02-07T01:21:20.797Z,20.17
2023-02-07T01:23:49.158Z,24.43
2023-02-07T01:26:18.108Z,20.23
2023-02-07T01:28:46.486Z,19.70
2023-02-07T01:31:15.224Z,24.83
2023-02-07T01:33:43.774Z,24.97
2023-02-07T01:36:16.000Z,29.90
2023-02-07T01:38:44.717Z,23.53
2023-02-07T01:41:14.760Z,24.67
2023-02-07T01:43:57.930Z,21.37
2023-02-07T01:46:26.918Z,22.80
2023-02-07T01:48:59.225Z,22.33
2023-02-07T01:51:30.422Z,22.97
2023-02-07T01:54:01.710Z,19.93
2023-02-07T01:56:32.228Z,19.17
2023-02-07T01:59:02.725Z,21.83
2023-02-07T02:01:31.147Z,21.30
2023-02-07T02:03:59.621Z,21.77
2023-02-07T02:06:32.143Z,23.53
2023-02-07T02:09:01.982Z,21.37
2023-02-07T02:11:53.360Z,23.03
2023-02-07T02:14:32.542Z,26.73
2023-02-07T02:17:08.061Z,22.47
2023-02-07T02:20:13.032Z,24.43
2023-02-07T02:23:15.405Z,25.10
2023-02-07T02:26:22.294Z,23.20
2023-02-07T02:29:10.965Z,27.40
2023-02-07T02:32:28.764Z,21.30
2023-02-07T02:35:01.369Z,26.33
2023-02-07T02:37:37.409Z,27.37
2023-02-07T02:40:09.282Z,25.17
2023-02-07T02:42:42.382Z,22.37
2023-02-07T02:45:17.325Z,26.57
2023-02-07T02:47:48.037Z,26.67
2023-02-07T02:50:24.281Z,30.87
2023-02-07T02:52:52.804Z,31.80
2023-02-07T02:55:41.637Z,26.60
2023-02-07T02:58:15.789Z,31.00
2023-02-07T03:00:55.222Z,27.37
2023-02-07T03:04:02.420Z,30.20
2023-02-07T03:06:48.598Z,28.90
2023-02-07T03:09:24.637Z,32.77
2023-02-07T03:11:57.835Z,26.40
2023-02-07T03:14:33.113Z,34.90
2023-02-07T03:17:09.783Z,32.57
2023-02-07T03:19:42.139Z,29.53
2023-02-07T03:22:13.823Z,32.33
2023-02-07T03:24:47.012Z,33.90
2023-02-07T03:27:18.537Z,34.63
2023-02-07T03:29:48.620Z,42.27
2023-02-07T03:32:18.258Z,30.03
2023-02-07T03:34:51.317Z,37.83
2023-02-07T03:37:24.316Z,35.70
2023-02-07T03:39:53.012Z,31.70
2023-02-07T03:42:32.054Z,36.87
2023-02-07T03:45:01.265Z,36.57
2023-02-07T03:47:29.739Z,40.70
2023-02-07T03:49:58.192Z,42.97
2023-02-07T03:52:27.878Z,38.50
2023-02-07T03:54:56.172Z,37.17
2023-02-07T03:57:24.476Z,39.93
2023-02-07T03:59:52.840Z,35.70
2023-02-07T04:02:21.278Z,31.93
2023-02-07T04:04:49.607Z,38.10
2023-02-07T04:07:17.974Z,35.23
2023-02-07T04:09:47.668Z,34.33
2023-02-07T04:12:15.848Z,41.43
2023-02-07T04:14:44.055Z,34.97
2023-02-07T04:17:12.304Z,36.03
2023-02-07T04:19:40.580Z,34.80
2023-02-07T04:22:11.081Z,39.80
2023-02-07T04:24:39.406Z,47.30
2023-02-07T04:27:09.004Z,36.63
2023-02-07T04:29:37.266Z,31.97
2023-02-07T04:32:05.992Z,39.90
2023-02-07T04:34:34.304Z,35.93
2023-02-07T04:37:02.598Z,37.37
2023-02-07T04:39:31.086Z,34.30
2023-02-07T04:41:59.653Z,32.73
2023-02-07T04:44:29.293Z,30.60
2023-02-07T04:46:57.702Z,35.97
2023-02-07T04:49:26.119Z,34.43
2023-02-07T04:51:54.427Z,35.70
2023-02-07T04:54:22.988Z,39.13
2023-02-07T04:56:51.189Z,34.97
2023-02-07T04:59:19.746Z,36.40
2023-02-07T05:01:49.473Z,27.70
2023-02-07T05:04:17.949Z,33.77
2023-02-07T05:06:46.259Z,34.87
2023-02-07T05:09:14.724Z,45.17
2023-02-07T05:11:43.006Z,30.87
2023-02-07T05:14:11.392Z,31.37
2023-02-07T05:16:39.711Z,32.90
2023-02-07T05:19:09.495Z,32.97
2023-02-07T05:21:37.745Z,37.43
2023-02-07T05:24:06.301Z,34.27
2023-02-07T05:26:34.621Z,32.93
2023-02-07T05:29:02.947Z,37.57
2023-02-07T05:31:45.231Z,37.93
2023-02-07T05:34:14.971Z,40.20
2023-02-07T05:36:43.294Z,34.87
2023-02-07T05:39:11.618Z,33.57
2023-02-07T05:41:39.926Z,35.30
2023-02-07T05:44:08.264Z,40.27
2023-02-07T05:46:36.582Z,36.07
2023-02-07T05:49:04.951Z,33.53
2023-02-07T05:51:34.596Z,37.40
2023-02-07T05:54:02.916Z,40.27
2023-02-07T05:56:31.421Z,37.37
2023-02-07T05:58:59.688Z,43.00
2023-02-07T06:01:28.042Z,49.30
2023-02-07T06:03:56.363Z,38.70
2023-02-07T06:06:25.521Z,33.67
2023-02-07T06:08:55.146Z,38.10
2023-02-07T06:11:24.402Z,35.90
2023-02-07T06:13:52.720Z,34.13
2023-02-07T06:16:21.001Z,38.27
2023-02-07T06:18:49.372Z,45.63
2023-02-07T06:21:17.586Z,36.93
2023-02-07T06:23:46.981Z,41.67
2023-02-07T06:26:16.673Z,42.87
2023-02-07T06:28:44.984Z,40.40
2023-02-07T06:31:13.307Z,34.73
2023-02-07T06:33:41.734Z,35.00
2023-02-07T06:36:10.534Z,40.57
2023-02-07T06:38:38.812Z,29.40
2023-02-07T06:41:10.945Z,34.67
2023-02-07T06:43:40.937Z,38.47
2023-02-07T06:46:09.441Z,35.90
2023-02-07T06:48:38.344Z,34.43
2023-02-07T06:51:07.124Z,34.47
2023-02-07T06:53:35.524Z,35.33
2023-02-07T06:56:03.789Z,37.73
2023-02-07T06:58:32.084Z,34.37
2023-02-07T07:01:02.731Z,41.27
2023-02-07T07:03:31.066Z,36.87
2023-02-07T07:05:59.660Z,40.83
2023-02-07T07:08:28.380Z,42.13
2023-02-07T07:10:57.953Z,40.40
2023-02-07T07:13:26.236Z,45.97
2023-02-07T07:15:54.525Z,43.50
2023-02-07T07:18:24.211Z,45.53
2023-02-07T07:20:54.590Z,49.17
2023-02-07T07:23:23.042Z,51.57
2023-02-07T07:25:51.695Z,53.87
2023-02-07T07:28:19.987Z,56.73
2023-02-07T07:30:49.512Z,47.90
2023-02-07T07:33:17.786Z,49.57
2023-02-07T07:35:47.440Z,44.97
2023-02-07T07:38:15.842Z,46.77
2023-02-07T07:40:44.170Z,45.40
2023-02-07T07:43:12.478Z,43.40
2023-02-07T07:45:47.765Z,45.67
2023-02-07T07:48:16.058Z,48.23
2023-02-07T07:50:44.399Z,50.53
2023-02-07T07:53:14.097Z,59.87
2023-02-07T07:55:42.524Z,47.73
2023-02-07T07:58:10.778Z,46.83
2023-02-07T08:00:39.335Z,42.57
2023-02-07T08:03:07.746Z,42.13
2023-02-07T08:05:35.980Z,41.00
2023-02-07T08:08:04.302Z,40.37
2023-02-07T08:10:33.887Z,44.67
2023-02-07T08:13:02.118Z,50.00
2023-02-07T08:15:30.634Z,35.53
2023-02-07T08:17:58.996Z,36.93
2023-02-07T08:20:27.362Z,36.07
2023-02-07T08:22:57.601Z,39.87
2023-02-07T08:25:26.437Z,33.37
2023-02-07T08:27:56.191Z,33.17
2023-02-07T08:30:24.683Z,33.33
2023-02-07T08:32:53.042Z,29.40
2023-02-07T08:35:21.394Z,30.73
2023-02-07T08:37:50.161Z,33.00
2023-02-07T08:40:18.924Z,29.67
2023-02-07T08:42:47.442Z,30.73
2023-02-07T08:45:17.764Z,30.43
2023-02-07T08:47:46.467Z,29.90
2023-02-07T08:50:15.757Z,33.13
2023-02-07T08:52:44.308Z,29.37
2023-02-07T08:55:13.100Z,33.07
2023-02-07T08:57:41.452Z,29.03
2023-02-07T09:00:11.070Z,33.43
2023-02-07T09:02:41.207Z,36.57
2023-02-07T09:05:09.781Z,28.47
2023-02-07T09:07:38.179Z,34.57
2023-02-07T09:10:07.967Z,36.23
2023-02-07T09:12:36.683Z,43.63
2023-02-07T09:15:06.033Z,33.77
2023-02-07T09:17:34.366Z,29.07
2023-02-07T09:20:04.363Z,27.00
2023-02-07T09:22:33.159Z,31.37
2023-02-07T09:25:01.417Z,25.77
2023-02-07T09:27:29.697Z,27.83
2023-02-07T09:29:57.986Z,29.00
2023-02-07T09:32:26.358Z,24.17
2023-02-07T09:34:54.582Z,29.53
2023-02-07T09:37:24.278Z,28.13
2023-02-07T09:39:53.188Z,27.90
2023-02-07T09:42:24.969Z,27.43
2023-02-07T09:44:58.803Z,26.63
2023-02-07T09:47:27.895Z,29.57
2023-02-07T09:49:58.713Z,26.23
2023-02-07T09:52:31.128Z,27.93
2023-02-07T09:55:01.518Z,26.30
2023-02-07T09:57:37.609Z,26.77
2023-02-07T10:00:10.255Z,25.03
2023-02-07T10:02:43.019Z,25.63
2023-02-07T10:05:17.911Z,30.83
2023-02-07T10:07:49.772Z,28.17
2023-02-07T10:10:19.376Z,24.13
2023-02-07T10:13:12.063Z,22.13
2023-02-07T10:15:50.482Z,19.10
2023-02-07T10:18:32.236Z,19.03
2023-02-07T10:21:06.235Z,16.97
2023-02-07T10:23:43.837Z,18.97
2023-02-07T10:26:20.569Z,20.47
2023-02-07T10:29:27.775Z,20.83
2023-02-07T10:31:57.603Z,17.73
2023-02-07T10:34:29.976Z,20.13
2023-02-07T10:36:59.769Z,15.83
2023-02-07T10:39:33.696Z,17.20
2023-02-07T10:42:01.916Z,16.67
2023-02-07T10:44:30.364Z,17.23
2023-02-07T10:47:01.808Z,20.17
2023-02-07T10:49:31.996Z,17.67
2023-02-07T10:52:02.864Z,18.23
2023-02-07T10:54:51.914Z,18.33
2023-02-07T10:57:21.457Z,16.23
2023-02-07T10:59:50.600Z,17.23
2023-02-07T11:02:41.823Z,17.23
2023-02-07T11:05:29.560Z,15.57
2023-02-07T11:07:59.520Z,15.07
2023-02-07T11:10:32.258Z,18.57
2023-02-07T11:13:01.883Z,21.23
2023-02-07T11:15:49.635Z,21.47
2023-02-07T11:18:37.710Z,16.93
2023-02-07T11:21:08.514Z,24.17
2023-02-07T11:23:36.789Z,21.27
2023-02-07T11:26:06.980Z,21.90
2023-02-07T11:28:35.385Z,19.63
2023-02-07T11:31:07.308Z,18.53
2023-02-07T11:33:37.343Z,17.97
2023-02-07T11:36:12.989Z,17.00
2023-02-07T11:38:42.674Z,16.60
2023-02-07T11:41:20.803Z,13.57
2023-02-07T11:44:00.663Z,13.40
2023-02-07T11:46:35.964Z,13.20
2023-02-07T11:49:05.408Z,12.83
2023-02-07T11:51:35.291Z,15.20
2023-02-07T11:54:04.604Z,15.13
2023-02-07T11:56:38.335Z,13.83
2023-02-07T11:59:08.231Z,14.90
2023-02-07T12:01:37.797Z,15.40
2023-02-07T12:04:12.694Z,14.63
2023-02-07T12:06:44.083Z,13.50
2023-02-07T12:09:25.935Z,16.07
2023-02-07T12:11:57.474Z,16.10
2023-02-07T12:14:29.208Z,15.47
2023-02-07T12:16:59.755Z,16.07
2023-02-07T12:19:33.170Z,14.67
2023-02-07T12:22:07.019Z,14.33
2023-02-07T12:24:38.517Z,13.77
2023-02-07T12:27:14.930Z,14.93
2023-02-07T12:29:53.386Z,14.63
2023-02-07T12:32:28.697Z,17.10
2023-02-07T12:35:00.523Z,14.87
2023-02-07T12:37:35.459Z,15.17
2023-02-07T12:40:10.044Z,14.40
2023-02-07T12:42:43.064Z,12.27
2023-02-07T12:45:17.244Z,13.20
2023-02-07T12:47:52.134Z,16.57
2023-02-07T12:50:39.347Z,15.27
2023-02-07T12:53:17.669Z,13.43
2023-02-07T12:55:55.818Z,27.50
2023-02-07T12:58:33.950Z,18.30
2023-02-07T13:01:05.204Z,16.30
2023-02-07T13:03:49.953Z,17.63
2023-02-07T13:06:25.912Z,16.27
2023-02-07T13:09:00.134Z,15.40
2023-02-07T13:11:38.262Z,17.17
2023-02-07T13:14:25.908Z,15.60
2023-02-07T13:17:01.942Z,14.30
2023-02-07T13:19:33.762Z,18.80
2023-02-07T13:22:06.575Z,16.47
2023-02-07T13:24:36.770Z,15.67
2023-02-07T13:27:08.666Z,13.73
2023-02-07T13:29:38.474Z,14.23
2023-02-07T13:32:12.567Z,13.50
2023-02-07T13:34:45.449Z,14.87
2023-02-07T13:37:17.310Z,15.97
2023-02-07T13:39:52.983Z,14.83
2023-02-07T13:42:28.649Z,19.83
2023-02-07T13:45:02.731Z,13.93
2023-02-07T13:47:50.979Z,15.17
2023-02-07T13:50:31.948Z,12.27
2023-02-07T13:53:02.754Z,12.60
2023-02-07T13:55:34.746Z,13.50
2023-02-07T13:58:16.877Z,12.50
2023-02-07T14:01:10.135Z,13.87
2023-02-07T14:03:38.443Z,12.73
2023-02-07T14:06:18.839Z,12.50
2023-02-07T14:08:47.151Z,13.47
2023-02-07T14:11:30.479Z,13.10
2023-02-07T14:14:06.610Z,16.77
2023-02-07T14:16:48.038Z,12.33
2023-02-07T14:19:18.577Z,12.93
2023-02-07T14:21:48.008Z,13.20
2023-02-07T14:24:33.065Z,12.07
2023-02-07T14:27:03.627Z,12.60
2023-02-07T14:29:57.375Z,13.30
2023-02-07T14:32:42.391Z,14.43
2023-02-07T14:35:30.621Z,11.63
2023-02-07T14:38:03.709Z,14.03
2023-02-07T14:40:37.229Z,13.87
2023-02-07T14:43:08.658Z,16.07
2023-02-07T14:45:38.207Z,12.83
2023-02-07T14:48:35.913Z,15.87
2023-02-07T14:51:04.802Z,14.60
2023-02-07T14:53:33.171Z,14.53
2023-02-07T14:56:03.984Z,14.57
2023-02-07T14:58:37.106Z,15.03
2023-02-07T15:01:11.186Z,15.17
2023-02-07T15:03:41.091Z,13.70
2023-02-07T15:06:30.792Z,12.93
2023-02-07T15:09:02.017Z,12.23
2023-02-07T15:11:38.326Z,7.80
2023-02-07T15:14:07.234Z,8.67
2023-02-07T15:16:38.482Z,8.47
2023-02-07T15:19:14.057Z,8.33
2023-02-07T15:21:46.157Z,9.30
2023-02-07T15:24:18.616Z,8.23
2023-02-07T15:26:55.873Z,7.90
2023-02-07T15:29:30.184Z,7.53
2023-02-07T15:31:58.727Z,8.43
2023-02-07T15:34:31.701Z,8.23
2023-02-07T15:37:01.263Z,7.30
2023-02-07T15:39:30.862Z,9.50
2023-02-07T15:42:03.795Z,9.57
2023-02-07T15:44:34.164Z,10.57
2023-02-07T15:47:05.406Z,10.60
2023-02-07T15:49:35.587Z,9.10
2023-02-07T15:52:08.366Z,11.77
2023-02-07T15:54:39.587Z,15.83
2023-02-07T15:57:13.600Z,15.37
2023-02-07T15:59:42.933Z,9.93
2023-02-07T16:02:25.605Z,10.73
2023-02-07T16:04:54.101Z,8.03
2023-02-07T16:07:23.970Z,11.60
2023-02-07T16:09:53.877Z,9.63
2023-02-07T16:12:45.042Z,10.63
2023-02-07T16:15:27.460Z,9.63
2023-02-07T16:17:56.637Z,10.07
2023-02-07T16:20:25.511Z,12.03
2023-02-07T16:22:55.970Z,13.03
2023-02-07T16:25:26.972Z,11.60
2023-02-07T16:27:56.669Z,11.03
2023-02-07T16:30:26.808Z,10.90
2023-02-07T16:32:55.196Z,11.97
2023-02-07T16:35:25.037Z,13.10
2023-02-07T16:37:54.543Z,11.73
2023-02-07T16:40:23.492Z,14.10
2023-02-07T16:42:53.963Z,15.83
2023-02-07T16:45:25.262Z,14.13
2023-02-07T16:47:53.678Z,18.20
2023-02-07T16:50:24.493Z,17.03
2023-02-07T16:52:54.741Z,17.93
2023-02-07T16:55:23.022Z,22.77
2023-02-07T16:57:51.300Z,19.07
2023-02-07T17:00:22.301Z,19.90
2023-02-07T17:02:53.674Z,27.60
2023-02-07T17:05:23.062Z,29.80
2023-02-07T17:07:51.794Z,21.07
2023-02-07T17:10:23.914Z,19.13
2023-02-07T17:12:52.291Z,21.43
2023-02-07T17:15:20.549Z,22.73
2023-02-07T17:17:49.173Z,22.77
2023-02-07T17:20:23.699Z,28.67
2023-02-07T17:22:52.460Z,20.73
2023-02-07T17:25:21.977Z,25.00
2023-02-07T17:27:50.383Z,21.33
2023-02-07T17:30:20.275Z,27.07
2023-02-07T17:32:48.871Z,31.20
2023-02-07T17:35:17.336Z,23.57
2023-02-07T17:37:48.865Z,22.90
2023-02-07T17:40:28.037Z,20.30
2023-02-07T17:42:56.414Z,21.87
2023-02-07T17:45:24.948Z,20.93
2023-02-07T17:47:53.290Z,18.93
2023-02-07T17:50:23.490Z,23.30
2023-02-07T17:52:53.197Z,19.40
2023-02-07T17:55:21.544Z,22.00
2023-02-07T17:57:49.866Z,24.00
2023-02-07T18:00:20.295Z,26.10
2023-02-07T18:02:49.063Z,22.47
2023-02-07T18:05:18.307Z,22.50
2023-02-07T18:07:49.725Z,22.17
2023-02-07T18:10:24.720Z,25.70
2023-02-07T18:12:53.313Z,25.70
2023-02-07T18:15:22.207Z,24.73
2023-02-07T18:17:51.424Z,27.47
2023-02-07T18:20:22.343Z,24.00
2023-02-07T18:22:50.718Z,21.30
2023-02-07T18:25:19.292Z,19.77
2023-02-07T18:27:51.103Z,22.37
2023-02-07T18:30:20.516Z,25.07
2023-02-07T18:32:48.986Z,23.77
2023-02-07T18:35:17.482Z,22.23
2023-02-07T18:37:46.115Z,24.63
2023-02-07T18:40:15.817Z,25.03
2023-02-07T18:42:44.498Z,27.50
2023-02-07T18:45:14.578Z,27.83
2023-02-07T18:47:43.443Z,28.40
2023-02-07T18:50:13.438Z,25.40
2023-02-07T18:52:41.701Z,26.20
2023-02-07T18:55:10.317Z,26.13
2023-02-07T18:57:38.577Z,24.33
2023-02-07T19:00:09.443Z,23.60
2023-02-07T19:02:39.078Z,24.57
2023-02-07T19:05:08.042Z,24.33
2023-02-07T19:07:36.388Z,24.87
2023-02-07T19:10:04.984Z,23.97
2023-02-07T19:12:33.273Z,25.47
2023-02-07T19:15:01.616Z,21.87
2023-02-07T19:17:29.917Z,25.57
2023-02-07T19:19:59.642Z,23.63
2023-02-07T19:22:35.361Z,21.63
2023-02-07T19:25:05.188Z,24.57
2023-02-07T19:27:33.583Z,21.33
2023-02-07T19:30:02.051Z,24.60
2023-02-07T19:32:30.311Z,22.03
2023-02-07T19:35:00.043Z,23.70
2023-02-07T19:37:28.296Z,25.90
2023-02-07T19:39:57.306Z,24.37
2023-02-07T19:42:25.822Z,23.80
2023-02-07T19:44:54.077Z,24.43
2023-02-07T19:47:22.265Z,25.07
2023-02-07T19:49:52.296Z,25.27
2023-02-07T19:52:23.191Z,23.87
2023-02-07T19:54:51.568Z,25.93
2023-02-07T19:57:19.818Z,24.87
2023-02-07T19:59:48.480Z,27.87
2023-02-07T20:02:16.819Z,25.97
2023-02-07T20:04:45.111Z,24.53
2023-02-07T20:07:13.443Z,27.43
2023-02-07T20:09:43.097Z,29.83
2023-02-07T20:12:11.333Z,26.43
2023-02-07T20:14:39.634Z,25.63
2023-02-07T20:17:08.220Z,25.77
2023-02-07T20:19:37.562Z,23.87
2023-02-07T20:22:06.086Z,26.37
2023-02-07T20:24:34.612Z,24.13
2023-02-07T20:27:04.890Z,25.87
2023-02-07T20:29:33.604Z,25.00
2023-02-07T20:32:01.857Z,25.77
2023-02-07T20:34:30.284Z,25.93
2023-02-07T20:36:58.616Z,27.37
2023-02-07T20:39:29.188Z,24.70
2023-02-07T20:41:57.435Z,27.50
2023-02-07T20:44:27.152Z,24.57
2023-02-07T20:46:57.483Z,29.43
2023-02-07T20:49:28.422Z,26.87
2023-02-07T20:51:58.245Z,25.03
2023-02-07T20:54:28.445Z,28.33
2023-02-07T20:56:57.586Z,25.10
2023-02-07T20:59:28.375Z,28.10
2023-02-07T21:01:57.220Z,25.30
2023-02-07T21:04:26.787Z,30.00
2023-02-07T21:06:55.236Z,26.10
2023-02-07T21:09:23.789Z,25.03
2023-02-07T21:11:53.740Z,26.37
2023-02-07T21:14:26.934Z,28.07
2023-02-07T21:16:55.746Z,28.57
2023-02-07T21:19:24.417Z,24.60
2023-02-07T21:21:55.072Z,25.97
2023-02-07T21:24:23.615Z,26.23
2023-02-07T21:26:52.957Z,28.53
2023-02-07T21:29:21.716Z,27.80
2023-02-07T21:31:52.323Z,24.93
2023-02-07T21:34:22.273Z,24.00
2023-02-07T21:36:52.378Z,25.33
2023-02-07T21:39:20.845Z,27.63
2023-02-07T21:41:49.228Z,27.13
2023-02-07T21:44:19.582Z,25.97
2023-02-07T21:46:48.394Z,28.87
2023-02-07T21:49:20.735Z,24.90
2023-02-07T21:51:50.426Z,24.73
2023-02-07T21:54:18.987Z,23.33
2023-02-07T21:56:47.510Z,24.97
2023-02-07T21:59:17.857Z,26.30
2023-02-07T22:01:46.804Z,24.67
2023-02-07T22:04:17.821Z,29.90
2023-02-07T22:06:48.011Z,25.67
2023-02-07T22:09:18.031Z,24.70
2023-02-07T22:11:46.290Z,27.83
2023-02-07T22:14:15.271Z,29.27
2023-02-07T22:16:44.012Z,29.50
2023-02-07T22:19:14.157Z,27.07
2023-02-07T22:21:44.342Z,31.73
2023-02-07T22:24:14.403Z,26.60
2023-02-07T22:26:42.818Z,29.37
2023-02-07T22:29:11.407Z,28.60
2023-02-07T22:31:41.084Z,27.83
2023-02-07T22:34:11.332Z,29.70
2023-02-07T22:36:42.985Z,34.03
2023-02-07T22:39:14.649Z,32.07
2023-02-07T22:41:42.980Z,31.20
2023-02-07T22:44:11.389Z,30.53
2023-02-07T22:46:39.943Z,30.67
2023-02-07T22:49:08.189Z,31.40
2023-02-07T22:51:37.969Z,29.43
2023-02-07T22:54:08.709Z,33.37
2023-02-07T22:56:39.351Z,34.93
2023-02-07T22:59:08.442Z,32.10
2023-02-07T23:01:39.280Z,36.60
2023-02-07T23:04:09.311Z,36.30
2023-02-07T23:06:37.673Z,38.63
2023-02-07T23:09:06.414Z,39.27
2023-02-07T23:11:34.925Z,39.90
2023-02-07T23:14:05.754Z,39.20
2023-02-07T23:16:34.530Z,43.40
2023-02-07T23:19:05.799Z,35.90
2023-02-07T23:21:34.145Z,30.93
2023-02-07T23:24:03.998Z,31.47
2023-02-07T23:26:32.528Z,36.57
2023-02-07T23:29:00.755Z,38.73
2023-02-07T23:31:30.675Z,36.57
2023-02-07T23:33:59.223Z,37.90
2023-02-07T23:36:27.595Z,34.37
2023-02-07T23:38:55.903Z,37.47
2023-02-07T23:41:24.083Z,45.73
2023-02-07T23:43:52.341Z,40.60
2023-02-07T23:46:20.844Z,41.27
2023-02-07T23:48:50.544Z,41.30
2023-02-07T23:51:18.861Z,40.10
2023-02-07T23:53:47.215Z,42.07
2023-02-07T23:56:17.593Z,34.83
2023-02-07T23:58:46.699Z,38.27
